sensor_id;sensor_type;location;lat;lon;timestamp;pressure;altitude;pressure_sealevel;temperature
79089;BMP280;68489;50.286;9.452;2023-12-22T00:02:03;95610.16;;;3.85
79089;BMP280;68489;50.286;9.452;2023-12-22T00:04:29;95587.22;;;3.86
79089;BMP280;68489;50.286;9.452;2023-12-22T00:06:54;95597.41;;;3.84
79089;BMP280;68489;50.286;9.452;2023-12-22T00:09:20;95620.47;;;3.80
79089;BMP280;68489;50.286;9.452;2023-12-22T00:11:45;95613.16;;;3.75
79089;BMP280;68489;50.286;9.452;2023-12-22T00:14:11;95628.59;;;3.73
79089;BMP280;68489;50.286;9.452;2023-12-22T00:16:37;95605.28;;;3.62
79089;BMP280;68489;50.286;9.452;2023-12-22T00:19:03;95602.34;;;3.60
79089;BMP280;68489;50.286;9.452;2023-12-22T00:21:28;95622.22;;;3.61
79089;BMP280;68489;50.286;9.452;2023-12-22T00:23:54;95614.66;;;3.63
79089;BMP280;68489;50.286;9.452;2023-12-22T00:26:19;95597.41;;;3.62
79089;BMP280;68489;50.286;9.452;2023-12-22T00:28:45;95602.97;;;3.64
79089;BMP280;68489;50.286;9.452;2023-12-22T00:31:10;95617.16;;;3.67
79089;BMP280;68489;50.286;9.452;2023-12-22T00:33:38;95623.75;;;3.71
79089;BMP280;68489;50.286;9.452;2023-12-22T00:36:03;95618.50;;;3.71
79089;BMP280;68489;50.286;9.452;2023-12-22T00:38:28;95610.72;;;3.68
79089;BMP280;68489;50.286;9.452;2023-12-22T00:40:54;95610.94;;;3.73
79089;BMP280;68489;50.286;9.452;2023-12-22T00:43:19;95613.03;;;3.65
79089;BMP280;68489;50.286;9.452;2023-12-22T00:45:45;95619.47;;;3.64
79089;BMP280;68489;50.286;9.452;2023-12-22T00:48:10;95617.56;;;3.65
79089;BMP280;68489;50.286;9.452;2023-12-22T00:50:35;95609.50;;;3.59
79089;BMP280;68489;50.286;9.452;2023-12-22T00:53:01;95628.84;;;3.53
79089;BMP280;68489;50.286;9.452;2023-12-22T00:55:26;95624.72;;;3.52
79089;BMP280;68489;50.286;9.452;2023-12-22T00:57:51;95628.41;;;3.54
79089;BMP280;68489;50.286;9.452;2023-12-22T01:00:17;95627.50;;;3.48
79089;BMP280;68489;50.286;9.452;2023-12-22T01:02:42;95617.16;;;3.54
79089;BMP280;68489;50.286;9.452;2023-12-22T01:05:09;95608.03;;;3.58
79089;BMP280;68489;50.286;9.452;2023-12-22T01:07:34;95608.88;;;3.55
79089;BMP280;68489;50.286;9.452;2023-12-22T01:09:59;95603.19;;;3.57
79089;BMP280;68489;50.286;9.452;2023-12-22T01:12:29;95602.91;;;3.55
79089;BMP280;68489;50.286;9.452;2023-12-22T01:14:58;95604.69;;;3.58
79089;BMP280;68489;50.286;9.452;2023-12-22T01:17:23;95602.56;;;3.53
79089;BMP280;68489;50.286;9.452;2023-12-22T01:19:49;95613.69;;;3.57
79089;BMP280;68489;50.286;9.452;2023-12-22T01:22:14;95636.09;;;3.61
79089;BMP280;68489;50.286;9.452;2023-12-22T01:24:40;95655.53;;;3.64
79089;BMP280;68489;50.286;9.452;2023-12-22T01:27:08;95667.09;;;3.67
79089;BMP280;68489;50.286;9.452;2023-12-22T01:29:34;95668.22;;;3.65
79089;BMP280;68489;50.286;9.452;2023-12-22T01:31:59;95686.94;;;3.68
79089;BMP280;68489;50.286;9.452;2023-12-22T01:34:24;95708.41;;;3.66
79089;BMP280;68489;50.286;9.452;2023-12-22T01:36:50;95697.13;;;3.65
79089;BMP280;68489;50.286;9.452;2023-12-22T01:39:16;95693.69;;;3.69
79089;BMP280;68489;50.286;9.452;2023-12-22T01:41:41;95688.97;;;3.63
79089;BMP280;68489;50.286;9.452;2023-12-22T01:44:06;95698.09;;;3.59
79089;BMP280;68489;50.286;9.452;2023-12-22T01:46:32;95681.81;;;3.51
79089;BMP280;68489;50.286;9.452;2023-12-22T01:48:59;95672.50;;;3.50
79089;BMP280;68489;50.286;9.452;2023-12-22T01:51:27;95683.97;;;3.44
79089;BMP280;68489;50.286;9.452;2023-12-22T01:53:53;95675.31;;;3.43
79089;BMP280;68489;50.286;9.452;2023-12-22T01:56:18;95680.38;;;3.37
79089;BMP280;68489;50.286;9.452;2023-12-22T01:58:44;95677.34;;;3.39
79089;BMP280;68489;50.286;9.452;2023-12-22T02:01:10;95682.91;;;3.28
79089;BMP280;68489;50.286;9.452;2023-12-22T02:03:35;95684.06;;;3.27
79089;BMP280;68489;50.286;9.452;2023-12-22T02:06:02;95679.22;;;3.26
79089;BMP280;68489;50.286;9.452;2023-12-22T02:08:31;95662.44;;;3.23
79089;BMP280;68489;50.286;9.452;2023-12-22T02:10:57;95668.53;;;3.20
79089;BMP280;68489;50.286;9.452;2023-12-22T02:13:22;95672.94;;;3.23
79089;BMP280;68489;50.286;9.452;2023-12-22T02:15:50;95681.03;;;3.16
79089;BMP280;68489;50.286;9.452;2023-12-22T02:18:22;95665.06;;;3.10
79089;BMP280;68489;50.286;9.452;2023-12-22T02:20:50;95664.22;;;3.13
79089;BMP280;68489;50.286;9.452;2023-12-22T02:23:15;95648.56;;;3.10
79089;BMP280;68489;50.286;9.452;2023-12-22T02:25:41;95657.72;;;3.05
79089;BMP280;68489;50.286;9.452;2023-12-22T02:28:11;95655.50;;;3.04
79089;BMP280;68489;50.286;9.452;2023-12-22T02:30:52;95663.38;;;3.04
79089;BMP280;68489;50.286;9.452;2023-12-22T02:33:22;95666.00;;;3.04
79089;BMP280;68489;50.286;9.452;2023-12-22T02:35:49;95673.47;;;3.05
79089;BMP280;68489;50.286;9.452;2023-12-22T02:38:15;95670.50;;;3.03
79089;BMP280;68489;50.286;9.452;2023-12-22T02:40:41;95679.13;;;3.04
79089;BMP280;68489;50.286;9.452;2023-12-22T02:43:08;95689.00;;;3.12
79089;BMP280;68489;50.286;9.452;2023-12-22T02:45:33;95688.28;;;3.12
79089;BMP280;68489;50.286;9.452;2023-12-22T02:47:59;95688.28;;;3.12
79089;BMP280;68489;50.286;9.452;2023-12-22T02:50:25;95676.19;;;3.14
79089;BMP280;68489;50.286;9.452;2023-12-22T02:52:50;95672.50;;;3.12
79089;BMP280;68489;50.286;9.452;2023-12-22T02:55:16;95674.09;;;3.09
79089;BMP280;68489;50.286;9.452;2023-12-22T02:57:41;95680.72;;;3.14
79089;BMP280;68489;50.286;9.452;2023-12-22T03:00:07;95673.88;;;3.16
79089;BMP280;68489;50.286;9.452;2023-12-22T03:02:33;95688.91;;;3.16
79089;BMP280;68489;50.286;9.452;2023-12-22T03:04:58;95684.47;;;3.13
79089;BMP280;68489;50.286;9.452;2023-12-22T03:07:23;95685.66;;;3.12
79089;BMP280;68489;50.286;9.452;2023-12-22T03:09:49;95701.00;;;3.13
79089;BMP280;68489;50.286;9.452;2023-12-22T03:12:14;95679.53;;;3.15
79089;BMP280;68489;50.286;9.452;2023-12-22T03:14:39;95679.97;;;3.13
79089;BMP280;68489;50.286;9.452;2023-12-22T03:17:06;95660.03;;;3.16
79089;BMP280;68489;50.286;9.452;2023-12-22T03:19:32;95656.25;;;3.17
79089;BMP280;68489;50.286;9.452;2023-12-22T03:21:57;95661.59;;;3.13
79089;BMP280;68489;50.286;9.452;2023-12-22T03:24:23;95677.34;;;3.13
79089;BMP280;68489;50.286;9.452;2023-12-22T03:26:49;95675.56;;;3.10
79089;BMP280;68489;50.286;9.452;2023-12-22T03:29:15;95674.72;;;3.13
79089;BMP280;68489;50.286;9.452;2023-12-22T03:31:40;95670.31;;;3.10
79089;BMP280;68489;50.286;9.452;2023-12-22T03:34:06;95672.50;;;3.12
79089;BMP280;68489;50.286;9.452;2023-12-22T03:36:31;95684.25;;;3.07
79089;BMP280;68489;50.286;9.452;2023-12-22T03:38:57;95682.47;;;3.04
79089;BMP280;68489;50.286;9.452;2023-12-22T03:41:22;95686.66;;;3.02
79089;BMP280;68489;50.286;9.452;2023-12-22T03:43:47;95695.19;;;2.93
79089;BMP280;68489;50.286;9.452;2023-12-22T03:46:13;95692.78;;;2.86
79089;BMP280;68489;50.286;9.452;2023-12-22T03:48:38;95686.38;;;2.87
79089;BMP280;68489;50.286;9.452;2023-12-22T03:51:04;95686.56;;;2.80
79089;BMP280;68489;50.286;9.452;2023-12-22T03:53:29;95694.13;;;2.78
79089;BMP280;68489;50.286;9.452;2023-12-22T03:55:54;95709.53;;;2.76
79089;BMP280;68489;50.286;9.452;2023-12-22T03:58:20;95706.19;;;2.75
79089;BMP280;68489;50.286;9.452;2023-12-22T04:00:45;95718.75;;;2.67
79089;BMP280;68489;50.286;9.452;2023-12-22T04:03:10;95716.53;;;2.66
79089;BMP280;68489;50.286;9.452;2023-12-22T04:05:36;95732.28;;;2.66
79089;BMP280;68489;50.286;9.452;2023-12-22T04:08:01;95726.81;;;2.60
79089;BMP280;68489;50.286;9.452;2023-12-22T04:10:26;95734.41;;;2.58
79089;BMP280;68489;50.286;9.452;2023-12-22T04:12:52;95720.63;;;2.54
79089;BMP280;68489;50.286;9.452;2023-12-22T04:15:17;95738.16;;;2.57
79089;BMP280;68489;50.286;9.452;2023-12-22T04:17:42;95743.09;;;2.55
79089;BMP280;68489;50.286;9.452;2023-12-22T04:20:08;95743.50;;;2.54
79089;BMP280;68489;50.286;9.452;2023-12-22T04:22:33;95731.44;;;2.56
79089;BMP280;68489;50.286;9.452;2023-12-22T04:24:59;95733.34;;;2.56
79089;BMP280;68489;50.286;9.452;2023-12-22T04:27:24;95743.81;;;2.56
79089;BMP280;68489;50.286;9.452;2023-12-22T04:29:50;95719.88;;;2.54
79089;BMP280;68489;50.286;9.452;2023-12-22T04:32:15;95743.81;;;2.56
79089;BMP280;68489;50.286;9.452;2023-12-22T04:34:40;95731.78;;;2.58
79089;BMP280;68489;50.286;9.452;2023-12-22T04:37:06;95729.78;;;2.62
79089;BMP280;68489;50.286;9.452;2023-12-22T04:39:31;95743.50;;;2.54
79089;BMP280;68489;50.286;9.452;2023-12-22T04:41:57;95733.84;;;2.51
79089;BMP280;68489;50.286;9.452;2023-12-22T04:44:22;95752.53;;;2.53
79089;BMP280;68489;50.286;9.452;2023-12-22T04:46:48;95739.91;;;2.47
79089;BMP280;68489;50.286;9.452;2023-12-22T04:49:14;95739.09;;;2.51
79089;BMP280;68489;50.286;9.452;2023-12-22T04:51:39;95749.56;;;2.51
79089;BMP280;68489;50.286;9.452;2023-12-22T04:54:04;95736.13;;;2.48
79089;BMP280;68489;50.286;9.452;2023-12-22T04:56:30;95731.22;;;2.51
79089;BMP280;68489;50.286;9.452;2023-12-22T04:58:55;95751.13;;;2.48
79089;BMP280;68489;50.286;9.452;2023-12-22T05:01:20;95757.53;;;2.47
79089;BMP280;68489;50.286;9.452;2023-12-22T05:03:46;95747.78;;;2.47
79089;BMP280;68489;50.286;9.452;2023-12-22T05:06:11;95770.72;;;2.43
79089;BMP280;68489;50.286;9.452;2023-12-22T05:08:36;95768.03;;;2.47
79089;BMP280;68489;50.286;9.452;2023-12-22T05:11:02;95753.75;;;2.48
79089;BMP280;68489;50.286;9.452;2023-12-22T05:13:28;95744.50;;;2.43
79089;BMP280;68489;50.286;9.452;2023-12-22T05:15:53;95759.94;;;2.41
79089;BMP280;68489;50.286;9.452;2023-12-22T05:18:20;95755.41;;;2.42
79089;BMP280;68489;50.286;9.452;2023-12-22T05:20:45;95780.25;;;2.37
79089;BMP280;68489;50.286;9.452;2023-12-22T05:23:10;95747.63;;;2.38
79089;BMP280;68489;50.286;9.452;2023-12-22T05:25:36;95754.97;;;2.43
79089;BMP280;68489;50.286;9.452;2023-12-22T05:28:01;95756.47;;;2.44
79089;BMP280;68489;50.286;9.452;2023-12-22T05:30:26;95738.50;;;2.43
79089;BMP280;68489;50.286;9.452;2023-12-22T05:32:52;95739.91;;;2.47
79089;BMP280;68489;50.286;9.452;2023-12-22T05:35:17;95730.16;;;2.48
79089;BMP280;68489;50.286;9.452;2023-12-22T05:37:42;95742.03;;;2.53
79089;BMP280;68489;50.286;9.452;2023-12-22T05:40:08;95729.66;;;2.53
79089;BMP280;68489;50.286;9.452;2023-12-22T05:42:34;95726.19;;;2.56
79089;BMP280;68489;50.286;9.452;2023-12-22T05:45:00;95729.22;;;2.55
79089;BMP280;68489;50.286;9.452;2023-12-22T05:47:25;95738.66;;;2.52
79089;BMP280;68489;50.286;9.452;2023-12-22T05:49:51;95750.31;;;2.51
79089;BMP280;68489;50.286;9.452;2023-12-22T05:52:16;95745.72;;;2.55
79089;BMP280;68489;50.286;9.452;2023-12-22T05:54:41;95751.59;;;2.59
79089;BMP280;68489;50.286;9.452;2023-12-22T05:57:07;95752.31;;;2.60
79089;BMP280;68489;50.286;9.452;2023-12-22T05:59:32;95750.53;;;2.57
79089;BMP280;68489;50.286;9.452;2023-12-22T06:01:58;95755.69;;;2.60
79089;BMP280;68489;50.286;9.452;2023-12-22T06:04:24;95759.47;;;2.59
79089;BMP280;68489;50.286;9.452;2023-12-22T06:06:50;95764.94;;;2.65
79089;BMP280;68489;50.286;9.452;2023-12-22T06:09:15;95752.13;;;2.67
79089;BMP280;68489;50.286;9.452;2023-12-22T06:11:43;95745.00;;;2.67
79089;BMP280;68489;50.286;9.452;2023-12-22T06:14:08;95743.53;;;2.66
79089;BMP280;68489;50.286;9.452;2023-12-22T06:16:33;95752.13;;;2.67
79089;BMP280;68489;50.286;9.452;2023-12-22T06:18:59;95766.38;;;2.66
79089;BMP280;68489;50.286;9.452;2023-12-22T06:21:24;95760.00;;;2.67
79089;BMP280;68489;50.286;9.452;2023-12-22T06:23:50;95757.50;;;2.63
79089;BMP280;68489;50.286;9.452;2023-12-22T06:26:15;95768.22;;;2.69
79089;BMP280;68489;50.286;9.452;2023-12-22T06:28:40;95770.41;;;2.70
79089;BMP280;68489;50.286;9.452;2023-12-22T06:31:06;95760.63;;;2.71
79089;BMP280;68489;50.286;9.452;2023-12-22T06:33:32;95776.53;;;2.80
79089;BMP280;68489;50.286;9.452;2023-12-22T06:35:57;95772.75;;;2.81
79089;BMP280;68489;50.286;9.452;2023-12-22T06:38:22;95781.59;;;2.87
79089;BMP280;68489;50.286;9.452;2023-12-22T06:40:48;95773.38;;;2.85
79089;BMP280;68489;50.286;9.452;2023-12-22T06:43:13;95781.19;;;2.89
79089;BMP280;68489;50.286;9.452;2023-12-22T06:45:39;95776.47;;;2.97
79089;BMP280;68489;50.286;9.452;2023-12-22T06:48:05;95783.19;;;2.98
79089;BMP280;68489;50.286;9.452;2023-12-22T06:50:31;95784.97;;;3.01
79089;BMP280;68489;50.286;9.452;2023-12-22T06:52:56;95809.88;;;3.09
79089;BMP280;68489;50.286;9.452;2023-12-22T06:55:21;95788.59;;;3.20
79089;BMP280;68489;50.286;9.452;2023-12-22T06:57:47;95795.50;;;3.26
79089;BMP280;68489;50.286;9.452;2023-12-22T07:00:12;95798.06;;;3.30
79089;BMP280;68489;50.286;9.452;2023-12-22T07:02:38;95793.00;;;3.35
79089;BMP280;68489;50.286;9.452;2023-12-22T07:07:35;95811.50;;;3.45
79089;BMP280;68489;50.286;9.452;2023-12-22T07:10:00;95824.13;;;3.50
79089;BMP280;68489;50.286;9.452;2023-12-22T07:12:26;95823.28;;;3.53
79089;BMP280;68489;50.286;9.452;2023-12-22T07:14:51;95836.19;;;3.60
79089;BMP280;68489;50.286;9.452;2023-12-22T07:17:16;95835.69;;;3.65
79089;BMP280;68489;50.286;9.452;2023-12-22T07:19:42;95855.88;;;3.68
79089;BMP280;68489;50.286;9.452;2023-12-22T07:22:07;95869.75;;;3.69
79089;BMP280;68489;50.286;9.452;2023-12-22T07:24:32;95853.25;;;3.68
79089;BMP280;68489;50.286;9.452;2023-12-22T07:26:58;95858.81;;;3.70
79089;BMP280;68489;50.286;9.452;2023-12-22T07:29:23;95861.78;;;3.72
79089;BMP280;68489;50.286;9.452;2023-12-22T07:31:48;95864.41;;;3.72
79089;BMP280;68489;50.286;9.452;2023-12-22T07:34:14;95867.03;;;3.72
79089;BMP280;68489;50.286;9.452;2023-12-22T07:36:40;95866.38;;;3.68
79089;BMP280;68489;50.286;9.452;2023-12-22T07:39:05;95866.09;;;3.66
79089;BMP280;68489;50.286;9.452;2023-12-22T07:41:32;95870.91;;;3.68
79089;BMP280;68489;50.286;9.452;2023-12-22T07:43:57;95885.53;;;3.69
79089;BMP280;68489;50.286;9.452;2023-12-22T07:46:22;95894.56;;;3.68
79089;BMP280;68489;50.286;9.452;2023-12-22T07:48:48;95880.28;;;3.69
79089;BMP280;68489;50.286;9.452;2023-12-22T07:51:13;95878.69;;;3.71
79089;BMP280;68489;50.286;9.452;2023-12-22T07:53:38;95880.91;;;3.73
79089;BMP280;68489;50.286;9.452;2023-12-22T07:56:04;95883.41;;;3.76
79089;BMP280;68489;50.286;9.452;2023-12-22T07:58:31;95890.88;;;3.78
79089;BMP280;68489;50.286;9.452;2023-12-22T08:00:58;95917.38;;;3.83
79089;BMP280;68489;50.286;9.452;2023-12-22T08:03:23;95912.03;;;3.87
79089;BMP280;68489;50.286;9.452;2023-12-22T08:05:49;95910.44;;;3.90
79089;BMP280;68489;50.286;9.452;2023-12-22T08:08:14;95888.91;;;3.95
79089;BMP280;68489;50.286;9.452;2023-12-22T08:10:40;95907.72;;;3.93
79089;BMP280;68489;50.286;9.452;2023-12-22T08:13:06;95903.94;;;3.94
79089;BMP280;68489;50.286;9.452;2023-12-22T08:15:31;95894.16;;;3.95
79089;BMP280;68489;50.286;9.452;2023-12-22T08:17:57;95901.22;;;3.98
79089;BMP280;68489;50.286;9.452;2023-12-22T08:20:22;95890.06;;;3.94
79089;BMP280;68489;50.286;9.452;2023-12-22T08:22:48;95884.38;;;3.95
79089;BMP280;68489;50.286;9.452;2023-12-22T08:25:15;95893.63;;;4.00
79089;BMP280;68489;50.286;9.452;2023-12-22T08:27:41;95893.94;;;4.02
79089;BMP280;68489;50.286;9.452;2023-12-22T08:30:08;95908.66;;;3.99
79089;BMP280;68489;50.286;9.452;2023-12-22T08:32:33;95912.91;;;3.97
79089;BMP280;68489;50.286;9.452;2023-12-22T08:34:59;95930.31;;;4.03
79089;BMP280;68489;50.286;9.452;2023-12-22T08:37:24;95923.81;;;4.08
79089;BMP280;68489;50.286;9.452;2023-12-22T08:39:49;95916.13;;;4.14
79089;BMP280;68489;50.286;9.452;2023-12-22T08:42:16;95923.38;;;4.09
79089;BMP280;68489;50.286;9.452;2023-12-22T08:44:41;95913.91;;;4.12
79089;BMP280;68489;50.286;9.452;2023-12-22T08:47:07;95908.66;;;4.12
79089;BMP280;68489;50.286;9.452;2023-12-22T08:49:32;95916.88;;;4.14
79089;BMP280;68489;50.286;9.452;2023-12-22T08:51:58;95920.88;;;4.19
79089;BMP280;68489;50.286;9.452;2023-12-22T08:54:23;95934.31;;;4.21
79089;BMP280;68489;50.286;9.452;2023-12-22T08:56:48;95941.69;;;4.26
79089;BMP280;68489;50.286;9.452;2023-12-22T08:59:13;95950.63;;;4.28
79089;BMP280;68489;50.286;9.452;2023-12-22T09:01:40;95943.47;;;4.29
79089;BMP280;68489;50.286;9.452;2023-12-22T09:04:09;95926.84;;;4.32
79089;BMP280;68489;50.286;9.452;2023-12-22T09:06:35;95922.94;;;4.37
79089;BMP280;68489;50.286;9.452;2023-12-22T09:09:00;95928.66;;;4.35
79089;BMP280;68489;50.286;9.452;2023-12-22T09:11:26;95930.84;;;4.37
79089;BMP280;68489;50.286;9.452;2023-12-22T09:13:51;95932.00;;;4.36
79089;BMP280;68489;50.286;9.452;2023-12-22T09:16:23;95924.75;;;4.40
79089;BMP280;68489;50.286;9.452;2023-12-22T09:18:50;95920.75;;;4.35
79089;BMP280;68489;50.286;9.452;2023-12-22T09:21:16;95901.91;;;4.37
79089;BMP280;68489;50.286;9.452;2023-12-22T09:23:43;95907.78;;;4.41
79089;BMP280;68489;50.286;9.452;2023-12-22T09:26:11;95914.22;;;4.40
79089;BMP280;68489;50.286;9.452;2023-12-22T09:28:36;95930.00;;;4.40
79089;BMP280;68489;50.286;9.452;2023-12-22T09:31:03;95929.28;;;4.39
79089;BMP280;68489;50.286;9.452;2023-12-22T09:33:30;95910.84;;;4.39
79089;BMP280;68489;50.286;9.452;2023-12-22T09:35:55;95898.00;;;4.41
79089;BMP280;68489;50.286;9.452;2023-12-22T09:38:21;95896.41;;;4.44
79089;BMP280;68489;50.286;9.452;2023-12-22T09:40:49;95886.94;;;4.46
79089;BMP280;68489;50.286;9.452;2023-12-22T09:43:15;95888.19;;;4.54
79089;BMP280;68489;50.286;9.452;2023-12-22T09:45:41;95872.41;;;4.54
79089;BMP280;68489;50.286;9.452;2023-12-22T09:48:07;95869.19;;;4.59
79089;BMP280;68489;50.286;9.452;2023-12-22T09:50:33;95873.88;;;4.55
79089;BMP280;68489;50.286;9.452;2023-12-22T09:53:00;95873.31;;;4.61
79089;BMP280;68489;50.286;9.452;2023-12-22T09:55:26;95876.66;;;4.61
79089;BMP280;68489;50.286;9.452;2023-12-22T09:57:52;95879.63;;;4.63
79089;BMP280;68489;50.286;9.452;2023-12-22T10:00:18;95871.72;;;4.63
79089;BMP280;68489;50.286;9.452;2023-12-22T10:02:44;95872.78;;;4.66
79089;BMP280;68489;50.286;9.452;2023-12-22T10:05:12;95879.09;;;4.68
79089;BMP280;68489;50.286;9.452;2023-12-22T10:07:41;95888.13;;;4.67
79089;BMP280;68489;50.286;9.452;2023-12-22T10:10:09;95898.13;;;4.72
79089;BMP280;68489;50.286;9.452;2023-12-22T10:12:36;95895.66;;;4.78
79089;BMP280;68489;50.286;9.452;2023-12-22T10:15:03;95882.09;;;4.79
79089;BMP280;68489;50.286;9.452;2023-12-22T10:17:30;95886.50;;;4.82
79089;BMP280;68489;50.286;9.452;2023-12-22T10:19:55;95868.06;;;4.82
79089;BMP280;68489;50.286;9.452;2023-12-22T10:22:21;95865.84;;;4.81
79089;BMP280;68489;50.286;9.452;2023-12-22T10:24:49;95869.84;;;4.86
79089;BMP280;68489;50.286;9.452;2023-12-22T10:27:16;95850.16;;;4.90
79089;BMP280;68489;50.286;9.452;2023-12-22T10:29:54;95850.88;;;4.91
79089;BMP280;68489;50.286;9.452;2023-12-22T10:32:20;95860.06;;;4.86
79089;BMP280;68489;50.286;9.452;2023-12-22T10:34:46;95851.84;;;4.84
79089;BMP280;68489;50.286;9.452;2023-12-22T10:37:12;95855.97;;;4.85
79089;BMP280;68489;50.286;9.452;2023-12-22T10:39:38;95843.41;;;4.89
79089;BMP280;68489;50.286;9.452;2023-12-22T10:42:04;95841.41;;;4.93
79089;BMP280;68489;50.286;9.452;2023-12-22T10:44:30;95838.13;;;4.89
79089;BMP280;68489;50.286;9.452;2023-12-22T10:46:56;95831.59;;;4.94
79089;BMP280;68489;50.286;9.452;2023-12-22T10:49:22;95835.97;;;4.97
79089;BMP280;68489;50.286;9.452;2023-12-22T10:51:48;95831.03;;;4.99
79089;BMP280;68489;50.286;9.452;2023-12-22T10:54:14;95828.25;;;5.02
79089;BMP280;68489;50.286;9.452;2023-12-22T10:56:39;95816.44;;;5.07
79089;BMP280;68489;50.286;9.452;2023-12-22T10:59:05;95819.09;;;5.07
79089;BMP280;68489;50.286;9.452;2023-12-22T11:01:32;95802.56;;;5.16
79089;BMP280;68489;50.286;9.452;2023-12-22T11:04:02;95792.44;;;5.14
79089;BMP280;68489;50.286;9.452;2023-12-22T11:06:30;95792.31;;;5.18
79089;BMP280;68489;50.286;9.452;2023-12-22T11:09:00;95783.97;;;5.10
79089;BMP280;68489;50.286;9.452;2023-12-22T11:11:46;95783.41;;;5.15
79089;BMP280;68489;50.286;9.452;2023-12-22T11:14:12;95775.69;;;5.21
79089;BMP280;68489;50.286;9.452;2023-12-22T11:16:40;95757.66;;;5.19
79089;BMP280;68489;50.286;9.452;2023-12-22T11:19:06;95759.44;;;5.22
79089;BMP280;68489;50.286;9.452;2023-12-22T11:21:35;95751.34;;;5.17
79089;BMP280;68489;50.286;9.452;2023-12-22T11:24:01;95729.00;;;5.21
79089;BMP280;68489;50.286;9.452;2023-12-22T11:26:27;95729.97;;;5.15
79089;BMP280;68489;50.286;9.452;2023-12-22T11:28:53;95717.25;;;5.13
79089;BMP280;68489;50.286;9.452;2023-12-22T11:31:18;95714.47;;;5.17
79089;BMP280;68489;50.286;9.452;2023-12-22T11:33:50;95716.69;;;5.18
79089;BMP280;68489;50.286;9.452;2023-12-22T11:36:16;95711.53;;;5.15
79089;BMP280;68489;50.286;9.452;2023-12-22T11:38:44;95708.22;;;5.23
79089;BMP280;68489;50.286;9.452;2023-12-22T11:41:16;95698.84;;;5.32
79089;BMP280;68489;50.286;9.452;2023-12-22T11:43:44;95689.34;;;5.34
79089;BMP280;68489;50.286;9.452;2023-12-22T11:46:10;95687.47;;;5.35
79089;BMP280;68489;50.286;9.452;2023-12-22T11:48:36;95685.84;;;5.37
79089;BMP280;68489;50.286;9.452;2023-12-22T11:51:12;95689.09;;;5.41
79089;BMP280;68489;50.286;9.452;2023-12-22T11:53:38;95702.69;;;5.49
79089;BMP280;68489;50.286;9.452;2023-12-22T11:56:04;95693.06;;;5.46
79089;BMP280;68489;50.286;9.452;2023-12-22T11:58:44;95688.66;;;5.52
79089;BMP280;68489;50.286;9.452;2023-12-22T12:01:19;95676.06;;;5.56
79089;BMP280;68489;50.286;9.452;2023-12-22T12:03:48;95669.50;;;5.61
79089;BMP280;68489;50.286;9.452;2023-12-22T12:06:15;95675.03;;;5.63
79089;BMP280;68489;50.286;9.452;2023-12-22T12:08:41;95660.13;;;5.69
79089;BMP280;68489;50.286;9.452;2023-12-22T12:11:09;95659.50;;;5.65
79089;BMP280;68489;50.286;9.452;2023-12-22T12:13:42;95666.69;;;5.64
79089;BMP280;68489;50.286;9.452;2023-12-22T12:16:10;95646.78;;;5.72
79089;BMP280;68489;50.286;9.452;2023-12-22T12:18:36;95633.16;;;5.83
79089;BMP280;68489;50.286;9.452;2023-12-22T12:21:01;95646.03;;;5.81
79089;BMP280;68489;50.286;9.452;2023-12-22T12:23:27;95641.22;;;5.80
79089;BMP280;68489;50.286;9.452;2023-12-22T12:25:56;95646.06;;;5.90
79089;BMP280;68489;50.286;9.452;2023-12-22T12:28:32;95641.53;;;5.91
79089;BMP280;68489;50.286;9.452;2023-12-22T12:30:59;95641.78;;;5.93
79089;BMP280;68489;50.286;9.452;2023-12-22T12:33:25;95649.09;;;5.98
79089;BMP280;68489;50.286;9.452;2023-12-22T12:35:52;95659.66;;;5.98
79089;BMP280;68489;50.286;9.452;2023-12-22T12:38:21;95639.72;;;5.97
79089;BMP280;68489;50.286;9.452;2023-12-22T12:40:50;95648.81;;;6.05
79089;BMP280;68489;50.286;9.452;2023-12-22T12:43:17;95643.13;;;6.07
79089;BMP280;68489;50.286;9.452;2023-12-22T12:45:42;95645.28;;;6.08
79089;BMP280;68489;50.286;9.452;2023-12-22T12:48:08;95641.91;;;6.08
79089;BMP280;68489;50.286;9.452;2023-12-22T12:50:33;95650.41;;;6.12
79089;BMP280;68489;50.286;9.452;2023-12-22T12:52:59;95639.13;;;6.11
79089;BMP280;68489;50.286;9.452;2023-12-22T12:55:25;95640.00;;;6.17
79089;BMP280;68489;50.286;9.452;2023-12-22T12:57:51;95644.66;;;6.22
79089;BMP280;68489;50.286;9.452;2023-12-22T13:02:49;95642.31;;;6.24
79089;BMP280;68489;50.286;9.452;2023-12-22T13:05:22;95629.72;;;6.29
79089;BMP280;68489;50.286;9.452;2023-12-22T13:07:47;95633.81;;;6.30
79089;BMP280;68489;50.286;9.452;2023-12-22T13:10:28;95611.53;;;6.31
79089;BMP280;68489;50.286;9.452;2023-12-22T13:12:54;95589.53;;;6.34
79089;BMP280;68489;50.286;9.452;2023-12-22T13:15:20;95600.53;;;6.32
79089;BMP280;68489;50.286;9.452;2023-12-22T13:17:49;95619.31;;;6.34
79089;BMP280;68489;50.286;9.452;2023-12-22T13:20:14;95628.97;;;6.37
79089;BMP280;68489;50.286;9.452;2023-12-22T13:22:40;95647.69;;;6.39
79089;BMP280;68489;50.286;9.452;2023-12-22T13:25:06;95640.09;;;6.41
79089;BMP280;68489;50.286;9.452;2023-12-22T13:27:31;95660.19;;;6.48
79089;BMP280;68489;50.286;9.452;2023-12-22T13:29:57;95652.81;;;6.52
79089;BMP280;68489;50.286;9.452;2023-12-22T13:32:22;95667.59;;;6.59
79089;BMP280;68489;50.286;9.452;2023-12-22T13:34:55;95684.19;;;6.59
79089;BMP280;68489;50.286;9.452;2023-12-22T13:37:22;95681.25;;;6.57
79089;BMP280;68489;50.286;9.452;2023-12-22T13:39:50;95698.56;;;6.58
79089;BMP280;68489;50.286;9.452;2023-12-22T13:42:19;95690.34;;;6.56
79089;BMP280;68489;50.286;9.452;2023-12-22T13:44:47;95689.19;;;6.57
79089;BMP280;68489;50.286;9.452;2023-12-22T13:47:20;95672.44;;;6.60
79089;BMP280;68489;50.286;9.452;2023-12-22T13:49:45;95668.50;;;6.56
79089;BMP280;68489;50.286;9.452;2023-12-22T13:52:30;95681.25;;;6.57
79089;BMP280;68489;50.286;9.452;2023-12-22T13:54:57;95678.31;;;6.55
79089;BMP280;68489;50.286;9.452;2023-12-22T13:57:26;95659.13;;;6.55
79089;BMP280;68489;50.286;9.452;2023-12-22T13:59:51;95673.50;;;6.54
79089;BMP280;68489;50.286;9.452;2023-12-22T14:02:19;95671.13;;;6.56
79089;BMP280;68489;50.286;9.452;2023-12-22T14:04:45;95672.31;;;6.55
79089;BMP280;68489;50.286;9.452;2023-12-22T14:07:10;95672.44;;;6.60
79089;BMP280;68489;50.286;9.452;2023-12-22T14:09:35;95658.53;;;6.60
79089;BMP280;68489;50.286;9.452;2023-12-22T14:12:03;95654.41;;;6.59
79089;BMP280;68489;50.286;9.452;2023-12-22T14:14:30;95655.16;;;6.59
79089;BMP280;68489;50.286;9.452;2023-12-22T14:16:56;95650.41;;;6.63
79089;BMP280;68489;50.286;9.452;2023-12-22T14:19:21;95655.84;;;6.69
79089;BMP280;68489;50.286;9.452;2023-12-22T14:21:46;95665.91;;;6.80